sensor_id;sensor_type;location;lat;lon;timestamp;P1;durP1;ratioP1;P2;durP2;ratioP2
24261;SDS011;12385;51.412;5.540;2023-05-07T00:01:24;13.73;;;11.38;;
24261;SDS011;12385;51.412;5.540;2023-05-07T00:03:49;15.70;;;12.20;;
24261;SDS011;12385;51.412;5.540;2023-05-07T00:06:15;16.10;;;12.43;;
24261;SDS011;12385;51.412;5.540;2023-05-07T00:08:40;17.88;;;13.18;;
24261;SDS011;12385;51.412;5.540;2023-05-07T00:11:06;16.83;;;13.63;;
24261;SDS011;12385;51.412;5.540;2023-05-07T00:13:33;15.77;;;13.23;;
24261;SDS011;12385;51.412;5.540;2023-05-07T00:16:01;21.80;;;14.25;;
24261;SDS011;12385;51.412;5.540;2023-05-07T00:18:27;20.98;;;15.25;;
24261;SDS011;12385;51.412;5.540;2023-05-07T00:20:53;20.92;;;15.50;;
24261;SDS011;12385;51.412;5.540;2023-05-07T00:23:18;18.98;;;15.63;;
24261;SDS011;12385;51.412;5.540;2023-05-07T00:25:44;21.27;;;16.90;;
24261;SDS011;12385;51.412;5.540;2023-05-07T00:28:10;22.30;;;18.02;;
24261;SDS011;12385;51.412;5.540;2023-05-07T00:30:35;22.98;;;18.15;;
24261;SDS011;12385;51.412;5.540;2023-05-07T00:33:01;23.05;;;18.70;;
24261;SDS011;12385;51.412;5.540;2023-05-07T00:35:28;29.70;;;21.10;;
24261;SDS011;12385;51.412;5.540;2023-05-07T00:37:54;26.95;;;21.33;;
24261;SDS011;12385;51.412;5.540;2023-05-07T00:40:20;27.00;;;21.30;;
24261;SDS011;12385;51.412;5.540;2023-05-07T00:42:45;26.20;;;20.92;;
24261;SDS011;12385;51.412;5.540;2023-05-07T00:45:12;27.10;;;21.38;;
24261;SDS011;12385;51.412;5.540;2023-05-07T00:47:38;29.58;;;22.45;;
24261;SDS011;12385;51.412;5.540;2023-05-07T00:50:05;28.75;;;20.48;;
24261;SDS011;12385;51.412;5.540;2023-05-07T00:52:32;29.85;;;21.48;;
24261;SDS011;12385;51.412;5.540;2023-05-07T00:54:57;26.08;;;21.35;;
24261;SDS011;12385;51.412;5.540;2023-05-07T00:57:29;32.97;;;22.88;;
24261;SDS011;12385;51.412;5.540;2023-05-07T00:59:57;26.73;;;21.75;;
24261;SDS011;12385;51.412;5.540;2023-05-07T01:02:23;28.70;;;22.83;;
24261;SDS011;12385;51.412;5.540;2023-05-07T01:04:48;28.38;;;22.23;;
24261;SDS011;12385;51.412;5.540;2023-05-07T01:07:14;28.52;;;23.23;;
24261;SDS011;12385;51.412;5.540;2023-05-07T01:09:40;27.17;;;21.20;;
24261;SDS011;12385;51.412;5.540;2023-05-07T01:12:06;28.25;;;23.63;;
24261;SDS011;12385;51.412;5.540;2023-05-07T01:14:33;27.98;;;23.20;;
24261;SDS011;12385;51.412;5.540;2023-05-07T01:16:59;31.13;;;24.38;;
24261;SDS011;12385;51.412;5.540;2023-05-07T01:19:25;29.75;;;23.27;;
24261;SDS011;12385;51.412;5.540;2023-05-07T01:21:52;30.20;;;23.00;;
24261;SDS011;12385;51.412;5.540;2023-05-07T01:24:26;30.15;;;24.23;;
24261;SDS011;12385;51.412;5.540;2023-05-07T01:26:52;35.17;;;24.38;;
24261;SDS011;12385;51.412;5.540;2023-05-07T01:29:17;28.77;;;23.30;;
24261;SDS011;12385;51.412;5.540;2023-05-07T01:31:43;31.48;;;24.70;;
24261;SDS011;12385;51.412;5.540;2023-05-07T01:34:10;33.67;;;26.20;;
24261;SDS011;12385;51.412;5.540;2023-05-07T01:36:38;34.88;;;24.95;;
24261;SDS011;12385;51.412;5.540;2023-05-07T01:39:05;37.22;;;26.90;;
24261;SDS011;12385;51.412;5.540;2023-05-07T01:41:31;31.98;;;26.25;;
24261;SDS011;12385;51.412;5.540;2023-05-07T01:43:57;36.72;;;25.70;;
24261;SDS011;12385;51.412;5.540;2023-05-07T01:46:24;36.80;;;26.40;;
24261;SDS011;12385;51.412;5.540;2023-05-07T01:48:51;32.95;;;27.05;;
24261;SDS011;12385;51.412;5.540;2023-05-07T01:51:16;34.58;;;27.92;;
24261;SDS011;12385;51.412;5.540;2023-05-07T01:53:42;33.53;;;27.65;;
24261;SDS011;12385;51.412;5.540;2023-05-07T01:56:09;35.28;;;26.77;;
24261;SDS011;12385;51.412;5.540;2023-05-07T01:58:34;36.13;;;28.35;;
24261;SDS011;12385;51.412;5.540;2023-05-07T02:01:00;37.33;;;27.58;;
24261;SDS011;12385;51.412;5.540;2023-05-07T02:03:26;35.72;;;28.65;;
24261;SDS011;12385;51.412;5.540;2023-05-07T02:05:52;38.17;;;28.83;;
24261;SDS011;12385;51.412;5.540;2023-05-07T02:08:18;36.90;;;29.55;;
24261;SDS011;12385;51.412;5.540;2023-05-07T02:10:43;34.75;;;27.80;;
24261;SDS011;12385;51.412;5.540;2023-05-07T02:13:09;35.83;;;28.77;;
24261;SDS011;12385;51.412;5.540;2023-05-07T02:15:34;34.95;;;28.63;;
24261;SDS011;12385;51.412;5.540;2023-05-07T02:18:07;34.42;;;27.63;;
24261;SDS011;12385;51.412;5.540;2023-05-07T02:20:34;39.28;;;30.85;;
24261;SDS011;12385;51.412;5.540;2023-05-07T02:23:00;42.80;;;31.98;;
24261;SDS011;12385;51.412;5.540;2023-05-07T02:25:25;38.67;;;29.63;;
24261;SDS011;12385;51.412;5.540;2023-05-07T02:27:52;37.97;;;29.95;;
24261;SDS011;12385;51.412;5.540;2023-05-07T02:30:17;37.78;;;30.52;;
24261;SDS011;12385;51.412;5.540;2023-05-07T02:32:46;39.78;;;30.73;;
24261;SDS011;12385;51.412;5.540;2023-05-07T02:35:11;41.72;;;31.55;;
24261;SDS011;12385;51.412;5.540;2023-05-07T02:37:37;37.88;;;31.25;;
24261;SDS011;12385;51.412;5.540;2023-05-07T02:40:02;43.88;;;32.15;;
24261;SDS011;12385;51.412;5.540;2023-05-07T02:42:29;45.42;;;32.78;;
24261;SDS011;12385;51.412;5.540;2023-05-07T02:44:55;36.33;;;31.02;;
24261;SDS011;12385;51.412;5.540;2023-05-07T02:47:21;40.40;;;33.00;;
24261;SDS011;12385;51.412;5.540;2023-05-07T02:49:47;41.55;;;32.25;;
24261;SDS011;12385;51.412;5.540;2023-05-07T02:52:13;44.47;;;31.98;;
24261;SDS011;12385;51.412;5.540;2023-05-07T02:54:38;45.35;;;34.10;;
24261;SDS011;12385;51.412;5.540;2023-05-07T02:57:04;43.65;;;33.65;;
24261;SDS011;12385;51.412;5.540;2023-05-07T02:59:29;40.70;;;31.55;;
24261;SDS011;12385;51.412;5.540;2023-05-07T03:01:55;44.50;;;34.13;;
24261;SDS011;12385;51.412;5.540;2023-05-07T03:04:20;44.50;;;33.60;;
24261;SDS011;12385;51.412;5.540;2023-05-07T03:06:46;43.30;;;33.97;;
24261;SDS011;12385;51.412;5.540;2023-05-07T03:09:11;43.38;;;34.60;;
24261;SDS011;12385;51.412;5.540;2023-05-07T03:11:37;42.45;;;34.25;;
24261;SDS011;12385;51.412;5.540;2023-05-07T03:14:03;44.40;;;34.28;;
24261;SDS011;12385;51.412;5.540;2023-05-07T03:16:28;42.65;;;34.08;;
24261;SDS011;12385;51.412;5.540;2023-05-07T03:18:54;43.42;;;33.25;;
24261;SDS011;12385;51.412;5.540;2023-05-07T03:21:19;46.83;;;36.78;;
24261;SDS011;12385;51.412;5.540;2023-05-07T03:23:45;46.17;;;36.58;;
24261;SDS011;12385;51.412;5.540;2023-05-07T03:26:11;49.95;;;38.47;;
24261;SDS011;12385;51.412;5.540;2023-05-07T03:28:36;46.75;;;36.38;;
24261;SDS011;12385;51.412;5.540;2023-05-07T03:31:02;48.88;;;36.22;;
24261;SDS011;12385;51.412;5.540;2023-05-07T03:33:28;51.78;;;38.00;;
24261;SDS011;12385;51.412;5.540;2023-05-07T03:35:54;51.75;;;37.85;;
24261;SDS011;12385;51.412;5.540;2023-05-07T03:38:19;49.03;;;38.55;;
24261;SDS011;12385;51.412;5.540;2023-05-07T03:40:45;49.50;;;39.28;;
24261;SDS011;12385;51.412;5.540;2023-05-07T03:43:10;49.60;;;39.40;;
24261;SDS011;12385;51.412;5.540;2023-05-07T03:45:36;51.95;;;39.22;;
24261;SDS011;12385;51.412;5.540;2023-05-07T03:48:02;49.95;;;36.75;;
24261;SDS011;12385;51.412;5.540;2023-05-07T03:50:27;52.83;;;40.13;;
24261;SDS011;12385;51.412;5.540;2023-05-07T03:52:53;48.17;;;38.72;;
24261;SDS011;12385;51.412;5.540;2023-05-07T03:55:19;50.42;;;38.67;;
24261;SDS011;12385;51.412;5.540;2023-05-07T03:57:45;53.53;;;40.05;;
24261;SDS011;12385;51.412;5.540;2023-05-07T04:00:10;52.72;;;40.25;;
24261;SDS011;12385;51.412;5.540;2023-05-07T04:02:36;55.25;;;40.35;;
24261;SDS011;12385;51.412;5.540;2023-05-07T04:05:02;54.38;;;40.95;;
24261;SDS011;12385;51.412;5.540;2023-05-07T04:07:28;54.03;;;39.80;;
24261;SDS011;12385;51.412;5.540;2023-05-07T04:09:53;52.67;;;40.58;;
24261;SDS011;12385;51.412;5.540;2023-05-07T04:12:19;57.22;;;42.22;;
24261;SDS011;12385;51.412;5.540;2023-05-07T04:14:44;59.63;;;42.50;;
24261;SDS011;12385;51.412;5.540;2023-05-07T04:17:10;57.03;;;42.67;;
24261;SDS011;12385;51.412;5.540;2023-05-07T04:19:36;52.65;;;39.38;;
24261;SDS011;12385;51.412;5.540;2023-05-07T04:22:01;53.90;;;41.00;;
24261;SDS011;12385;51.412;5.540;2023-05-07T04:24:27;55.17;;;41.58;;
24261;SDS011;12385;51.412;5.540;2023-05-07T04:26:55;55.85;;;41.92;;
24261;SDS011;12385;51.412;5.540;2023-05-07T04:29:21;51.88;;;39.80;;
24261;SDS011;12385;51.412;5.540;2023-05-07T04:31:46;58.60;;;40.85;;
24261;SDS011;12385;51.412;5.540;2023-05-07T04:34:12;53.85;;;41.17;;
24261;SDS011;12385;51.412;5.540;2023-05-07T04:36:39;54.55;;;41.50;;
24261;SDS011;12385;51.412;5.540;2023-05-07T04:39:04;58.47;;;41.80;;
24261;SDS011;12385;51.412;5.540;2023-05-07T04:41:31;53.67;;;40.83;;
24261;SDS011;12385;51.412;5.540;2023-05-07T04:43:57;56.45;;;41.85;;
24261;SDS011;12385;51.412;5.540;2023-05-07T04:46:23;53.55;;;40.75;;
24261;SDS011;12385;51.412;5.540;2023-05-07T04:48:49;54.10;;;41.45;;
24261;SDS011;12385;51.412;5.540;2023-05-07T04:51:16;58.00;;;41.58;;
24261;SDS011;12385;51.412;5.540;2023-05-07T04:53:41;53.60;;;40.95;;
24261;SDS011;12385;51.412;5.540;2023-05-07T04:56:08;53.17;;;40.17;;
24261;SDS011;12385;51.412;5.540;2023-05-07T04:58:33;52.70;;;40.28;;
24261;SDS011;12385;51.412;5.540;2023-05-07T05:00:59;54.60;;;39.15;;
24261;SDS011;12385;51.412;5.540;2023-05-07T05:03:25;48.88;;;38.53;;
24261;SDS011;12385;51.412;5.540;2023-05-07T05:05:51;50.22;;;38.28;;
24261;SDS011;12385;51.412;5.540;2023-05-07T05:08:18;53.47;;;39.45;;
24261;SDS011;12385;51.412;5.540;2023-05-07T05:10:44;48.83;;;37.75;;
24261;SDS011;12385;51.412;5.540;2023-05-07T05:13:10;47.63;;;37.50;;
24261;SDS011;12385;51.412;5.540;2023-05-07T05:15:37;45.95;;;36.13;;
24261;SDS011;12385;51.412;5.540;2023-05-07T05:18:03;46.67;;;36.72;;
24261;SDS011;12385;51.412;5.540;2023-05-07T05:20:29;52.65;;;36.95;;
24261;SDS011;12385;51.412;5.540;2023-05-07T05:22:55;48.45;;;38.42;;
24261;SDS011;12385;51.412;5.540;2023-05-07T05:25:20;44.85;;;36.75;;
24261;SDS011;12385;51.412;5.540;2023-05-07T05:27:46;46.47;;;36.53;;
24261;SDS011;12385;51.412;5.540;2023-05-07T05:30:11;44.95;;;36.67;;
24261;SDS011;12385;51.412;5.540;2023-05-07T05:32:38;45.85;;;36.20;;
24261;SDS011;12385;51.412;5.540;2023-05-07T05:35:04;43.53;;;35.25;;
24261;SDS011;12385;51.412;5.540;2023-05-07T05:37:30;44.58;;;34.67;;
24261;SDS011;12385;51.412;5.540;2023-05-07T05:39:56;41.90;;;33.97;;
24261;SDS011;12385;51.412;5.540;2023-05-07T05:42:22;41.42;;;33.60;;
24261;SDS011;12385;51.412;5.540;2023-05-07T05:44:48;46.13;;;36.13;;
24261;SDS011;12385;51.412;5.540;2023-05-07T05:47:13;46.63;;;35.15;;
24261;SDS011;12385;51.412;5.540;2023-05-07T05:49:39;46.08;;;34.72;;
24261;SDS011;12385;51.412;5.540;2023-05-07T05:52:05;43.67;;;33.85;;
24261;SDS011;12385;51.412;5.540;2023-05-07T05:54:31;47.47;;;36.03;;
24261;SDS011;12385;51.412;5.540;2023-05-07T05:56:57;44.08;;;34.78;;
24261;SDS011;12385;51.412;5.540;2023-05-07T05:59:22;40.47;;;31.75;;
24261;SDS011;12385;51.412;5.540;2023-05-07T06:01:48;40.10;;;32.78;;
24261;SDS011;12385;51.412;5.540;2023-05-07T06:04:14;45.35;;;33.97;;
24261;SDS011;12385;51.412;5.540;2023-05-07T06:06:39;40.65;;;34.53;;
24261;SDS011;12385;51.412;5.540;2023-05-07T06:09:05;40.25;;;32.38;;
24261;SDS011;12385;51.412;5.540;2023-05-07T06:11:31;40.72;;;32.40;;
24261;SDS011;12385;51.412;5.540;2023-05-07T06:13:57;40.03;;;33.33;;
24261;SDS011;12385;51.412;5.540;2023-05-07T06:16:24;38.60;;;31.05;;
24261;SDS011;12385;51.412;5.540;2023-05-07T06:18:49;40.40;;;32.05;;
24261;SDS011;12385;51.412;5.540;2023-05-07T06:21:15;40.63;;;30.48;;
24261;SDS011;12385;51.412;5.540;2023-05-07T06:23:41;38.17;;;32.13;;
24261;SDS011;12385;51.412;5.540;2023-05-07T06:26:07;37.58;;;30.52;;
24261;SDS011;12385;51.412;5.540;2023-05-07T06:28:32;36.40;;;30.25;;
24261;SDS011;12385;51.412;5.540;2023-05-07T06:31:16;36.08;;;29.75;;
24261;SDS011;12385;51.412;5.540;2023-05-07T06:33:47;40.95;;;29.52;;
24261;SDS011;12385;51.412;5.540;2023-05-07T06:36:14;37.05;;;28.83;;
24261;SDS011;12385;51.412;5.540;2023-05-07T06:38:39;41.17;;;29.60;;
24261;SDS011;12385;51.412;5.540;2023-05-07T06:41:05;31.88;;;28.08;;
24261;SDS011;12385;51.412;5.540;2023-05-07T06:43:31;35.63;;;28.63;;
24261;SDS011;12385;51.412;5.540;2023-05-07T06:45:57;33.72;;;27.38;;
24261;SDS011;12385;51.412;5.540;2023-05-07T06:48:23;35.63;;;28.23;;
24261;SDS011;12385;51.412;5.540;2023-05-07T06:50:48;34.80;;;27.83;;
24261;SDS011;12385;51.412;5.540;2023-05-07T06:53:14;31.90;;;25.88;;
24261;SDS011;12385;51.412;5.540;2023-05-07T06:55:40;33.00;;;26.75;;
24261;SDS011;12385;51.412;5.540;2023-05-07T06:58:06;30.23;;;25.98;;
24261;SDS011;12385;51.412;5.540;2023-05-07T07:00:32;30.77;;;25.63;;
24261;SDS011;12385;51.412;5.540;2023-05-07T07:02:58;32.05;;;25.58;;
24261;SDS011;12385;51.412;5.540;2023-05-07T07:05:25;28.00;;;24.95;;
24261;SDS011;12385;51.412;5.540;2023-05-07T07:07:50;29.15;;;24.83;;
24261;SDS011;12385;51.412;5.540;2023-05-07T07:10:19;34.25;;;26.27;;
24261;SDS011;12385;51.412;5.540;2023-05-07T07:12:45;29.77;;;25.33;;
24261;SDS011;12385;51.412;5.540;2023-05-07T07:15:10;30.13;;;24.35;;
24261;SDS011;12385;51.412;5.540;2023-05-07T07:17:36;34.53;;;24.15;;
24261;SDS011;12385;51.412;5.540;2023-05-07T07:20:02;29.23;;;24.02;;
24261;SDS011;12385;51.412;5.540;2023-05-07T07:22:28;28.95;;;23.85;;
24261;SDS011;12385;51.412;5.540;2023-05-07T07:24:54;26.58;;;23.77;;
24261;SDS011;12385;51.412;5.540;2023-05-07T07:27:20;27.35;;;23.20;;
24261;SDS011;12385;51.412;5.540;2023-05-07T07:29:45;29.02;;;23.55;;
24261;SDS011;12385;51.412;5.540;2023-05-07T07:32:11;30.48;;;23.65;;
24261;SDS011;12385;51.412;5.540;2023-05-07T07:34:39;30.77;;;24.70;;
24261;SDS011;12385;51.412;5.540;2023-05-07T07:37:05;28.83;;;22.52;;
24261;SDS011;12385;51.412;5.540;2023-05-07T07:39:31;27.90;;;22.05;;
24261;SDS011;12385;51.412;5.540;2023-05-07T07:41:57;27.30;;;20.25;;
24261;SDS011;12385;51.412;5.540;2023-05-07T07:44:23;28.70;;;21.92;;
24261;SDS011;12385;51.412;5.540;2023-05-07T07:46:48;22.58;;;20.10;;
24261;SDS011;12385;51.412;5.540;2023-05-07T07:49:15;24.52;;;20.75;;
24261;SDS011;12385;51.412;5.540;2023-05-07T07:51:41;25.42;;;19.23;;
24261;SDS011;12385;51.412;5.540;2023-05-07T07:54:08;28.02;;;21.55;;
24261;SDS011;12385;51.412;5.540;2023-05-07T07:56:41;22.63;;;20.17;;
24261;SDS011;12385;51.412;5.540;2023-05-07T07:59:06;23.23;;;18.73;;
24261;SDS011;12385;51.412;5.540;2023-05-07T08:01:32;22.98;;;17.55;;
24261;SDS011;12385;51.412;5.540;2023-05-07T08:04:06;21.70;;;18.20;;
24261;SDS011;12385;51.412;5.540;2023-05-07T08:06:32;24.55;;;17.70;;
24261;SDS011;12385;51.412;5.540;2023-05-07T08:08:57;21.83;;;16.70;;
24261;SDS011;12385;51.412;5.540;2023-05-07T08:13:54;22.90;;;18.15;;
24261;SDS011;12385;51.412;5.540;2023-05-07T08:16:21;19.40;;;17.10;;
24261;SDS011;12385;51.412;5.540;2023-05-07T08:18:46;19.05;;;15.32;;
24261;SDS011;12385;51.412;5.540;2023-05-07T08:21:12;20.23;;;15.55;;
24261;SDS011;12385;51.412;5.540;2023-05-07T08:23:37;20.05;;;15.75;;
24261;SDS011;12385;51.412;5.540;2023-05-07T08:26:09;24.90;;;15.45;;
24261;SDS011;12385;51.412;5.540;2023-05-07T08:28:35;15.98;;;13.63;;
24261;SDS011;12385;51.412;5.540;2023-05-07T08:31:01;21.77;;;15.35;;
24261;SDS011;12385;51.412;5.540;2023-05-07T08:33:26;20.75;;;15.43;;
24261;SDS011;12385;51.412;5.540;2023-05-07T08:35:53;19.17;;;14.57;;
24261;SDS011;12385;51.412;5.540;2023-05-07T08:38:19;16.83;;;14.00;;
24261;SDS011;12385;51.412;5.540;2023-05-07T08:40:45;19.15;;;13.88;;
24261;SDS011;12385;51.412;5.540;2023-05-07T08:43:12;16.58;;;14.35;;
24261;SDS011;12385;51.412;5.540;2023-05-07T08:45:39;16.63;;;13.38;;
24261;SDS011;12385;51.412;5.540;2023-05-07T08:48:08;18.60;;;12.82;;
24261;SDS011;12385;51.412;5.540;2023-05-07T08:50:40;16.27;;;12.98;;
24261;SDS011;12385;51.412;5.540;2023-05-07T08:53:05;15.10;;;12.00;;
24261;SDS011;12385;51.412;5.540;2023-05-07T08:55:32;16.90;;;11.35;;
24261;SDS011;12385;51.412;5.540;2023-05-07T08:57:58;15.75;;;12.38;;
24261;SDS011;12385;51.412;5.540;2023-05-07T09:00:24;15.45;;;11.93;;
24261;SDS011;12385;51.412;5.540;2023-05-07T09:02:51;15.40;;;12.15;;
24261;SDS011;12385;51.412;5.540;2023-05-07T09:05:18;14.23;;;11.32;;
24261;SDS011;12385;51.412;5.540;2023-05-07T09:07:43;14.15;;;11.98;;
24261;SDS011;12385;51.412;5.540;2023-05-07T09:10:09;13.82;;;11.00;;
24261;SDS011;12385;51.412;5.540;2023-05-07T09:12:35;13.38;;;11.23;;
24261;SDS011;12385;51.412;5.540;2023-05-07T09:15:01;12.15;;;10.20;;
24261;SDS011;12385;51.412;5.540;2023-05-07T09:17:28;13.60;;;10.48;;
24261;SDS011;12385;51.412;5.540;2023-05-07T09:19:54;15.77;;;10.32;;
24261;SDS011;12385;51.412;5.540;2023-05-07T09:22:20;13.95;;;9.57;;
24261;SDS011;12385;51.412;5.540;2023-05-07T09:24:49;11.65;;;9.13;;
24261;SDS011;12385;51.412;5.540;2023-05-07T09:27:15;13.07;;;9.73;;
24261;SDS011;12385;51.412;5.540;2023-05-07T09:29:40;14.55;;;8.43;;
24261;SDS011;12385;51.412;5.540;2023-05-07T09:32:07;10.80;;;8.18;;
24261;SDS011;12385;51.412;5.540;2023-05-07T09:34:33;13.07;;;9.60;;
24261;SDS011;12385;51.412;5.540;2023-05-07T09:37:03;13.65;;;9.23;;
24261;SDS011;12385;51.412;5.540;2023-05-07T09:39:42;13.88;;;9.48;;
24261;SDS011;12385;51.412;5.540;2023-05-07T09:42:13;13.43;;;8.98;;
24261;SDS011;12385;51.412;5.540;2023-05-07T09:44:45;12.98;;;8.38;;
24261;SDS011;12385;51.412;5.540;2023-05-07T09:47:12;11.98;;;8.50;;
24261;SDS011;12385;51.412;5.540;2023-05-07T09:49:43;10.90;;;8.23;;
24261;SDS011;12385;51.412;5.540;2023-05-07T09:52:13;11.57;;;8.30;;
24261;SDS011;12385;51.412;5.540;2023-05-07T09:54:39;12.73;;;8.27;;
24261;SDS011;12385;51.412;5.540;2023-05-07T09:57:09;12.45;;;7.68;;
24261;SDS011;12385;51.412;5.540;2023-05-07T09:59:36;9.85;;;7.18;;
24261;SDS011;12385;51.412;5.540;2023-05-07T10:02:03;9.55;;;6.95;;
24261;SDS011;12385;51.412;5.540;2023-05-07T10:04:30;8.70;;;6.47;;
24261;SDS011;12385;51.412;5.540;2023-05-07T10:06:56;9.57;;;6.55;;
24261;SDS011;12385;51.412;5.540;2023-05-07T10:09:23;9.20;;;6.53;;
24261;SDS011;12385;51.412;5.540;2023-05-07T10:11:51;10.07;;;6.47;;
24261;SDS011;12385;51.412;5.540;2023-05-07T10:14:19;7.13;;;5.30;;
24261;SDS011;12385;51.412;5.540;2023-05-07T10:16:46;7.93;;;5.32;;
24261;SDS011;12385;51.412;5.540;2023-05-07T10:19:12;9.73;;;6.30;;
24261;SDS011;12385;51.412;5.540;2023-05-07T10:21:39;9.73;;;6.13;;
24261;SDS011;12385;51.412;5.540;2023-05-07T10:24:19;9.32;;;6.50;;
24261;SDS011;12385;51.412;5.540;2023-05-07T10:26:49;8.45;;;5.82;;
24261;SDS011;12385;51.412;5.540;2023-05-07T10:31:57;8.00;;;4.47;;
24261;SDS011;12385;51.412;5.540;2023-05-07T10:34:32;9.18;;;4.30;;
24261;SDS011;12385;51.412;5.540;2023-05-07T10:37:03;7.70;;;4.80;;
24261;SDS011;12385;51.412;5.540;2023-05-07T10:39:30;8.60;;;4.28;;
24261;SDS011;12385;51.412;5.540;2023-05-07T10:41:56;7.43;;;4.30;;
24261;SDS011;12385;51.412;5.540;2023-05-07T10:44:31;5.82;;;4.30;;
24261;SDS011;12385;51.412;5.540;2023-05-07T10:47:07;9.38;;;4.82;;
24261;SDS011;12385;51.412;5.540;2023-05-07T10:52:21;9.63;;;5.38;;
24261;SDS011;12385;51.412;5.540;2023-05-07T10:57:46;7.18;;;5.18;;
24261;SDS011;12385;51.412;5.540;2023-05-07T11:05:24;7.18;;;4.82;;
24261;SDS011;12385;51.412;5.540;2023-05-07T11:08:02;6.68;;;4.65;;
24261;SDS011;12385;51.412;5.540;2023-05-07T11:13:17;6.33;;;4.20;;
24261;SDS011;12385;51.412;5.540;2023-05-07T11:15:47;7.15;;;4.28;;
24261;SDS011;12385;51.412;5.540;2023-05-07T11:18:14;9.15;;;4.55;;
24261;SDS011;12385;51.412;5.540;2023-05-07T11:20:51;5.25;;;4.22;;
24261;SDS011;12385;51.412;5.540;2023-05-07T11:23:59;8.45;;;4.15;;
24261;SDS011;12385;51.412;5.540;2023-05-07T11:26:06;8.93;;;4.05;;
24261;SDS011;12385;51.412;5.540;2023-05-07T11:28:37;4.43;;;3.60;;
24261;SDS011;12385;51.412;5.540;2023-05-07T11:31:05;6.75;;;3.40;;
24261;SDS011;12385;51.412;5.540;2023-05-07T11:33:31;6.60;;;3.33;;
24261;SDS011;12385;51.412;5.540;2023-05-07T11:35:57;5.03;;;3.72;;
24261;SDS011;12385;51.412;5.540;2023-05-07T11:38:24;6.22;;;3.10;;
24261;SDS011;12385;51.412;5.540;2023-05-07T11:40:50;4.13;;;3.08;;
24261;SDS011;12385;51.412;5.540;2023-05-07T11:43:17;5.05;;;3.28;;
24261;SDS011;12385;51.412;5.540;2023-05-07T11:45:42;6.47;;;3.47;;
24261;SDS011;12385;51.412;5.540;2023-05-07T11:48:09;6.15;;;3.53;;
24261;SDS011;12385;51.412;5.540;2023-05-07T11:50:35;6.32;;;3.72;;
24261;SDS011;12385;51.412;5.540;2023-05-07T11:53:12;5.80;;;3.60;;
24261;SDS011;12385;51.412;5.540;2023-05-07T11:55:37;6.40;;;3.97;;
24261;SDS011;12385;51.412;5.540;2023-05-07T11:58:03;8.10;;;3.78;;
24261;SDS011;12385;51.412;5.540;2023-05-07T12:00:28;5.25;;;4.20;;
24261;SDS011;12385;51.412;5.540;2023-05-07T12:02:54;5.63;;;4.10;;
24261;SDS011;12385;51.412;5.540;2023-05-07T12:05:20;8.15;;;5.40;;
24261;SDS011;12385;51.412;5.540;2023-05-07T12:07:45;6.70;;;5.47;;
24261;SDS011;12385;51.412;5.540;2023-05-07T12:10:11;10.43;;;4.88;;
24261;SDS011;12385;51.412;5.540;2023-05-07T12:12:38;6.00;;;4.10;;
24261;SDS011;12385;51.412;5.540;2023-05-07T12:15:06;9.07;;;5.97;;
24261;SDS011;12385;51.412;5.540;2023-05-07T12:17:33;7.80;;;5.47;;
24261;SDS011;12385;51.412;5.540;2023-05-07T12:19:58;7.03;;;3.67;;
24261;SDS011;12385;51.412;5.540;2023-05-07T12:22:25;6.85;;;3.30;;
24261;SDS011;12385;51.412;5.540;2023-05-07T12:24:57;6.15;;;3.22;;
24261;SDS011;12385;51.412;5.540;2023-05-07T12:27:23;5.65;;;3.00;;
24261;SDS011;12385;51.412;5.540;2023-05-07T12:29:49;11.25;;;3.70;;
24261;SDS011;12385;51.412;5.540;2023-05-07T12:32:16;8.55;;;3.67;;
24261;SDS011;12385;51.412;5.540;2023-05-07T12:34:43;8.18;;;3.15;;
24261;SDS011;12385;51.412;5.540;2023-05-07T12:37:09;5.57;;;3.20;;
24261;SDS011;12385;51.412;5.540;2023-05-07T12:39:35;6.72;;;3.92;;
24261;SDS011;12385;51.412;5.540;2023-05-07T12:42:01;11.02;;;4.80;;
24261;SDS011;12385;51.412;5.540;2023-05-07T12:44:33;11.18;;;5.00;;
24261;SDS011;12385;51.412;5.540;2023-05-07T12:47:03;14.77;;;5.25;;
24261;SDS011;12385;51.412;5.540;2023-05-07T12:49:29;18.88;;;6.20;;
24261;SDS011;12385;51.412;5.540;2023-05-07T12:51:54;18.05;;;6.13;;
24261;SDS011;12385;51.412;5.540;2023-05-07T12:54:27;20.52;;;7.45;;
24261;SDS011;12385;51.412;5.540;2023-05-07T12:57:01;19.85;;;7.43;;
24261;SDS011;12385;51.412;5.540;2023-05-07T12:59:34;10.88;;;4.97;;
24261;SDS011;12385;51.412;5.540;2023-05-07T13:02:00;11.35;;;4.70;;
24261;SDS011;12385;51.412;5.540;2023-05-07T13:04:26;12.57;;;5.43;;
24261;SDS011;12385;51.412;5.540;2023-05-07T13:06:52;10.60;;;4.70;;
24261;SDS011;12385;51.412;5.540;2023-05-07T13:09:17;9.07;;;4.88;;
24261;SDS011;12385;51.412;5.540;2023-05-07T13:11:44;7.53;;;4.03;;
24261;SDS011;12385;51.412;5.540;2023-05-07T13:14:10;7.70;;;3.60;;
24261;SDS011;12385;51.412;5.540;2023-05-07T13:16:35;12.57;;;4.72;;
24261;SDS011;12385;51.412;5.540;2023-05-07T13:19:01;7.80;;;4.60;;
24261;SDS011;12385;51.412;5.540;2023-05-07T13:21:26;8.10;;;3.40;;
24261;SDS011;12385;51.412;5.540;2023-05-07T13:23:52;8.55;;;3.25;;
24261;SDS011;12385;51.412;5.540;2023-05-07T13:26:17;7.20;;;3.20;;
24261;SDS011;12385;51.412;5.540;2023-05-07T13:28:43;6.53;;;3.20;;
24261;SDS011;12385;51.412;5.540;2023-05-07T13:31:09;8.90;;;3.17;;
24261;SDS011;12385;51.412;5.540;2023-05-07T13:33:34;6.13;;;2.80;;
24261;SDS011;12385;51.412;5.540;2023-05-07T13:36:00;6.40;;;2.95;;
24261;SDS011;12385;51.412;5.540;2023-05-07T13:38:29;6.03;;;2.88;;
24261;SDS011;12385;51.412;5.540;2023-05-07T13:40:54;8.13;;;2.90;;
24261;SDS011;12385;51.412;5.540;2023-05-07T13:43:20;8.73;;;2.80;;
24261;SDS011;12385;51.412;5.540;2023-05-07T13:45:45;4.53;;;2.63;;
24261;SDS011;12385;51.412;5.540;2023-05-07T13:48:11;7.43;;;3.00;;
24261;SDS011;12385;51.412;5.540;2023-05-07T13:50:36;6.03;;;3.15;;
24261;SDS011;12385;51.412;5.540;2023-05-07T13:53:02;6.93;;;3.70;;
24261;SDS011;12385;51.412;5.540;2023-05-07T13:55:28;7.13;;;3.17;;
24261;SDS011;12385;51.412;5.540;2023-05-07T13:57:55;8.05;;;4.18;;
24261;SDS011;12385;51.412;5.540;2023-05-07T14:00:22;19.08;;;4.65;;
24261;SDS011;12385;51.412;5.540;2023-05-07T14:02:49;10.45;;;4.88;;
24261;SDS011;12385;51.412;5.540;2023-05-07T14:05:14;13.02;;;5.50;;
24261;SDS011;12385;51.412;5.540;2023-05-07T14:07:40;13.90;;;5.72;;
24261;SDS011;12385;51.412;5.540;2023-05-07T14:10:06;10.18;;;4.78;;
24261;SDS011;12385;51.412;5.540;2023-05-07T14:12:32;8.88;;;4.63;;
24261;SDS011;12385;51.412;5.540;2023-05-07T14:14:58;11.45;;;5.20;;
24261;SDS011;12385;51.412;5.540;2023-05-07T14:17:25;6.30;;;3.25;;
24261;SDS011;12385;51.412;5.540;2023-05-07T14:19:52;9.13;;;4.07;;
24261;SDS011;12385;51.412;5.540;2023-05-07T14:22:22;12.27;;;3.67;;
24261;SDS011;12385;51.412;5.540;2023-05-07T14:24:48;7.30;;;3.40;;
24261;SDS011;12385;51.412;5.540;2023-05-07T14:27:14;7.38;;;2.72;;
24261;SDS011;12385;51.412;5.540;2023-05-07T14:29:40;10.10;;;2.92;;
24261;SDS011;12385;51.412;5.540;2023-05-07T14:32:06;7.68;;;3.30;;
24261;SDS011;12385;51.412;5.540;2023-05-07T14:34:31;6.10;;;3.33;;
24261;SDS011;12385;51.412;5.540;2023-05-07T14:36:57;4.80;;;2.97;;
24261;SDS011;12385;51.412;5.540;2023-05-07T14:39:24;3.47;;;2.40;;
24261;SDS011;12385;51.412;5.540;2023-05-07T14:41:50;6.50;;;3.00;;
24261;SDS011;12385;51.412;5.540;2023-05-07T14:44:16;5.80;;;2.97;;